Time;durP1;ratioP1;P1;durP2;ratioP2;P2;SDS_P1;SDS_P2;PMS_P1;PMS_P2;Temp;Humidity;BMP_temperature;BMP_pressure;BME280_temperature;BME280_humidity;BME280_pressure;Samples;Min_cycle;Max_cycle;Signal;HPM_P1;HPM_P2
2024/01/21 00:02:15;;;;;;;;;;;-8.00;99.90;;;-9.53;100.00;98900.63;5045520;28;1102;-72
2024/01/21 00:04:41;;;;;;;;;;;-8.00;99.90;;;-9.65;100.00;98901.56;5041805;28;1987;-72
2024/01/21 00:07:09;;;;;;;;;;;-8.00;99.90;;;-9.66;100.00;98893.16;5043786;28;1087;-72
2024/01/21 00:09:36;;;;;;;;;;;-8.00;99.90;;;-9.68;100.00;98892.19;5042362;28;1053;-73
2024/01/21 00:12:04;;;;;;;;;;;-8.00;99.90;;;-9.72;100.00;98891.13;5027292;28;1117;-72
2024/01/21 00:14:31;;;;;;;;;;;-8.00;99.90;;;-9.73;100.00;98884.38;5040554;28;1244;-72
2024/01/21 00:16:57;;;;;;;;;;;-8.00;99.90;;;-9.69;100.00;98877.91;5026310;28;1205;-72
2024/01/21 00:19:24;;;;;;;;;;;-8.10;99.90;;;-9.75;100.00;98873.38;5039526;28;1382;-72
2024/01/21 00:21:51;;;;;;;;;;;-8.10;99.90;;;-9.71;100.00;98875.28;5039762;28;1108;-72
2024/01/21 00:24:18;;;;;;;;;;;-8.10;99.90;;;-9.69;100.00;98873.75;5040897;28;2004;-72
2024/01/21 00:26:45;;;;;;;;;;;-8.10;99.90;;;-9.70;100.00;98866.97;5041979;28;1116;-73
2024/01/21 00:29:12;;;;;;;;;;;-8.10;99.90;;;-9.79;100.00;98860.56;5043782;28;1367;-72
2024/01/21 00:31:39;;;;;;;;;;;-8.10;99.90;;;-9.88;100.00;98861.75;5038704;28;1774;-71
2024/01/21 00:34:06;;;;;;;;;;;-8.10;99.90;;;-9.68;100.00;98865.41;5042876;28;1288;-71
2024/01/21 00:36:33;;;;;;;;;;;-8.10;99.90;;;-9.78;100.00;98854.72;5026891;28;1154;-71
2024/01/21 00:39:00;;;;;;;;;;;-8.10;99.90;;;-9.68;100.00;98851.97;5026171;28;1237;-70
2024/01/21 00:41:27;;;;;;;;;;;-8.20;99.90;;;-9.88;100.00;98850.84;5023286;28;1165;-70
2024/01/21 00:43:54;;;;;;;;;;;-8.20;99.90;;;-9.89;100.00;98849.97;5041287;28;1898;-71
2024/01/21 00:46:21;;;;;;;;;;;-8.20;99.90;;;-10.16;100.00;98850.88;5043050;28;1545;-71
2024/01/21 00:48:48;;;;;;;;;;;-8.30;99.90;;;-10.22;100.00;98848.00;5036861;28;1105;-70
2024/01/21 00:51:15;;;;;;;;;;;-8.30;99.90;;;-10.18;100.00;98843.25;5026747;28;1130;-71
2024/01/21 00:53:42;;;;;;;;;;;-8.40;99.90;;;-10.34;100.00;98844.00;5040477;28;1395;-72
2024/01/21 00:56:09;;;;;;;;;;;-8.50;99.90;;;-10.41;100.00;98843.56;5040987;28;1510;-69
2024/01/21 00:58:36;;;;;;;;;;;-8.50;99.90;;;-10.38;100.00;98847.09;5038483;28;1367;-73
2024/01/21 01:01:03;;;;;;;;;;;-8.60;99.90;;;-10.15;100.00;98847.56;5040774;28;1449;-73
2024/01/21 01:03:30;;;;;;;;;;;-8.60;99.90;;;-10.06;100.00;98859.81;5039341;28;1910;-73
2024/01/21 01:05:59;;;;;;;;;;;-8.50;99.90;;;-9.97;100.00;98861.22;5041280;28;1239;-73
2024/01/21 01:08:26;;;;;;;;;;;-8.50;99.90;;;-10.14;100.00;98864.38;5036964;28;1437;-73
2024/01/21 01:10:53;;;;;;;;;;;-8.40;99.90;;;-10.30;100.00;98865.16;5022089;28;1247;-72
2024/01/21 01:13:20;;;;;;;;;;;-8.40;99.90;;;-10.50;100.00;98868.09;5024069;28;1238;-71
2024/01/21 01:15:47;;;;;;;;;;;-8.50;99.90;;;-10.63;100.00;98869.84;5041752;28;1363;-73
2024/01/21 01:18:14;;;;;;;;;;;-8.70;99.90;;;-10.83;100.00;98868.66;5043016;28;1303;-70
2024/01/21 01:20:41;;;;;;;;;;;-8.80;99.90;;;-10.64;100.00;98869.78;5042706;28;1408;-72
2024/01/21 01:23:08;;;;;;;;;;;-8.90;99.90;;;-10.50;100.00;98874.00;5039751;28;2013;-73
2024/01/21 01:25:35;;;;;;;;;;;-8.90;99.90;;;-10.35;100.00;98877.44;5037707;28;1537;-73
2024/01/21 01:28:02;;;;;;;;;;;-8.80;99.90;;;-10.17;100.00;98884.28;5033524;28;1262;-73
2024/01/21 01:30:30;;;;;;;;;;;-8.70;99.90;;;-9.86;100.00;98874.41;5037859;28;1517;-73
2024/01/21 01:32:57;;;;;;;;;;;-8.50;99.90;;;-9.59;100.00;98870.09;5047117;28;1423;-73
2024/01/21 01:35:26;;;;;;;;;;;-8.30;99.90;;;-9.76;100.00;98864.13;5040185;28;1379;-72
2024/01/21 01:37:52;;;;;;;;;;;-8.20;99.90;;;-10.02;100.00;98861.72;5043119;28;1390;-73
2024/01/21 01:40:20;;;;;;;;;;;-8.30;99.90;;;-10.09;100.00;98850.47;5022987;28;1416;-72
2024/01/21 01:42:59;;;;;;;;;;;-8.30;99.90;;;-10.07;100.00;98843.03;5025802;28;1354;-71
2024/01/21 01:45:26;;;;;;;;;;;-8.40;99.90;;;-9.96;100.00;98844.50;5028346;28;1910;-71
2024/01/21 01:47:53;;;;;;;;;;;-8.40;99.90;;;-9.94;100.00;98848.84;5038244;28;1608;-72
2024/01/21 01:50:20;;;;;;;;;;;-8.40;99.90;;;-10.04;100.00;98846.56;5039539;28;1370;-72
2024/01/21 01:52:48;;;;;;;;;;;-8.30;99.90;;;-10.03;100.00;98848.31;5039197;28;1266;-73
2024/01/21 01:55:16;;;;;;;;;;;-8.30;99.90;;;-9.91;100.00;98848.16;5039039;28;1403;-72
2024/01/21 01:57:47;;;;;;;;;;;-8.30;99.90;;;-9.90;100.00;98847.34;5035911;28;1576;-73
2024/01/21 02:00:14;;;;;;;;;;;-8.30;99.90;;;-9.94;100.00;98841.31;5040195;28;1359;-71
2024/01/21 02:02:41;;;;;;;;;;;-8.30;99.90;;;-9.91;100.00;98845.66;5023909;28;1366;-72
2024/01/21 02:05:09;;;;;;;;;;;-8.30;99.90;;;-9.86;100.00;98838.38;5038440;28;2384;-73
2024/01/21 02:07:36;;;;;;;;;;;-8.30;99.90;;;-9.81;100.00;98836.97;5038538;28;1339;-72
2024/01/21 02:10:04;;;;;;;;;;;-8.30;99.90;;;-9.82;100.00;98838.63;5018665;28;1520;-72
2024/01/21 02:12:31;;;;;;;;;;;-8.30;99.90;;;-9.77;100.00;98827.19;5035613;28;1512;-72
2024/01/21 02:14:58;;;;;;;;;;;-8.30;99.90;;;-9.75;100.00;98822.28;5038953;28;1354;-72
2024/01/21 02:17:25;;;;;;;;;;;-8.20;99.90;;;-9.72;100.00;98820.78;5040072;28;1327;-71
2024/01/21 02:19:52;;;;;;;;;;;-8.20;99.90;;;-9.72;100.00;98823.28;5041260;28;1255;-72
2024/01/21 02:22:20;;;;;;;;;;;-8.20;99.90;;;-9.77;100.00;98813.78;5040817;28;1128;-72
2024/01/21 02:24:46;;;;;;;;;;;-8.30;99.90;;;-9.89;100.00;98813.94;5045278;28;1981;-72
2024/01/21 02:27:14;;;;;;;;;;;-8.30;99.90;;;-9.96;100.00;98809.34;5029502;28;1342;-73
2024/01/21 02:29:40;;;;;;;;;;;-8.30;99.90;;;-9.93;100.00;98802.84;5043317;28;1703;-72
2024/01/21 02:32:07;;;;;;;;;;;-8.30;99.90;;;-10.03;100.00;98810.63;5029914;28;1294;-72
2024/01/21 02:34:35;;;;;;;;;;;-8.30;99.90;;;-9.93;100.00;98805.34;5040995;28;1474;-71
2024/01/21 02:37:02;;;;;;;;;;;-8.30;99.90;;;-9.84;100.00;98805.03;5043034;28;1414;-72
2024/01/21 02:39:30;;;;;;;;;;;-8.30;99.90;;;-9.87;100.00;98804.84;5029283;28;1402;-72
2024/01/21 02:41:57;;;;;;;;;;;-8.30;99.90;;;-9.92;100.00;98796.16;5036607;28;1589;-72
2024/01/21 02:44:24;;;;;;;;;;;-8.30;99.90;;;-9.94;100.00;98788.56;5029483;28;1891;-72
2024/01/21 02:46:51;;;;;;;;;;;-8.30;99.90;;;-9.88;100.00;98791.41;5026758;28;1343;-72
2024/01/21 02:49:17;;;;;;;;;;;-8.30;99.90;;;-9.94;100.00;98793.59;5043536;28;1049;-72
2024/01/21 02:51:44;;;;;;;;;;;-8.20;99.90;;;-9.96;100.00;98799.31;5027036;28;1388;-73
2024/01/21 02:54:11;;;;;;;;;;;-8.30;99.90;;;-10.01;100.00;98786.50;5040526;28;1513;-72
2024/01/21 02:56:39;;;;;;;;;;;-8.40;99.90;;;-10.09;100.00;98780.16;5019819;28;1374;-73
2024/01/21 02:59:06;;;;;;;;;;;-8.40;99.90;;;-10.04;100.00;98760.31;5042804;28;1263;-71
2024/01/21 03:01:33;;;;;;;;;;;-8.40;99.90;;;-9.96;100.00;98754.97;5041091;28;1535;-72
2024/01/21 03:04:01;;;;;;;;;;;-8.40;99.90;;;-10.25;100.00;98770.84;5039578;28;1906;-72
2024/01/21 03:06:28;;;;;;;;;;;-8.80;99.90;;;-10.48;100.00;98769.56;5023942;28;1513;-72
2024/01/21 03:08:55;;;;;;;;;;;-9.10;99.90;;;-10.31;100.00;98770.53;5043051;28;1316;-72
2024/01/21 03:11:21;;;;;;;;;;;-9.00;99.90;;;-10.00;100.00;98765.59;5040759;28;1449;-72
2024/01/21 03:13:48;;;;;;;;;;;-8.80;99.90;;;-9.81;100.00;98759.97;5041106;28;1288;-72
2024/01/21 03:16:16;;;;;;;;;;;-8.60;99.90;;;-9.81;100.00;98777.53;5030793;28;1044;-73
2024/01/21 03:18:43;;;;;;;;;;;-8.60;99.90;;;-9.69;100.00;98782.44;5045390;28;1710;-71
2024/01/21 03:21:10;;;;;;;;;;;-8.40;99.90;;;-9.46;100.00;98781.19;5032099;28;1361;-71
2024/01/21 03:23:37;;;;;;;;;;;-8.30;99.90;;;-9.44;100.00;98789.69;5040303;28;1350;-73
2024/01/21 03:26:04;;;;;;;;;;;-8.10;99.90;;;-9.43;100.00;98788.03;5041691;28;1991;-72
2024/01/21 03:28:31;;;;;;;;;;;-8.00;99.90;;;-9.42;100.00;98798.16;5043393;28;1353;-73
2024/01/21 03:30:58;;;;;;;;;;;-8.00;99.90;;;-9.45;100.00;98797.97;5030635;28;1532;-73
2024/01/21 03:33:25;;;;;;;;;;;-7.90;99.90;;;-9.51;100.00;98810.19;5043498;28;1405;-72
2024/01/21 03:35:53;;;;;;;;;;;-8.00;99.90;;;-9.53;100.00;98810.13;5039863;28;1375;-72
2024/01/21 03:38:20;;;;;;;;;;;-7.90;99.90;;;-9.76;100.00;98813.88;5030154;28;1322;-72
2024/01/21 03:40:47;;;;;;;;;;;-8.00;99.90;;;-9.78;100.00;98812.03;5027076;28;1515;-73
2024/01/21 03:43:14;;;;;;;;;;;-8.10;99.90;;;-9.51;100.00;98802.66;5027085;28;1086;-72
2024/01/21 03:45:41;;;;;;;;;;;-8.10;99.90;;;-9.88;100.00;98803.09;5041825;28;1914;-72
2024/01/21 03:48:08;;;;;;;;;;;-8.10;99.90;;;-9.84;100.00;98800.00;5028819;28;1164;-72
2024/01/21 03:50:35;;;;;;;;;;;-8.20;99.90;;;-10.01;100.00;98806.56;5040719;28;1568;-73
2024/01/21 03:53:03;;;;;;;;;;;-8.20;99.90;;;-9.88;100.00;98803.97;5041158;28;1354;-72
2024/01/21 03:55:29;;;;;;;;;;;-8.20;99.90;;;-9.77;100.00;98806.25;5043804;28;1389;-72
2024/01/21 03:57:56;;;;;;;;;;;-8.20;99.90;;;-9.73;100.00;98803.97;5027459;28;1469;-72
2024/01/21 04:00:23;;;;;;;;;;;-8.10;99.90;;;-10.04;100.00;98801.34;5038061;28;1368;-72
2024/01/21 04:02:50;;;;;;;;;;;-8.10;99.90;;;-9.75;100.00;98810.56;5038629;28;1257;-72
2024/01/21 04:05:17;;;;;;;;;;;-8.10;99.90;;;-9.79;100.00;98801.13;5025364;28;1990;-72
2024/01/21 04:07:44;;;;;;;;;;;-8.10;99.90;;;-9.76;100.00;98800.41;5041024;28;1367;-73
2024/01/21 04:10:11;;;;;;;;;;;-8.20;99.90;;;-10.01;100.00;98795.63;5041174;28;1312;-73
2024/01/21 04:12:38;;;;;;;;;;;-8.30;99.90;;;-9.75;100.00;98799.66;5023892;28;1394;-71
2024/01/21 04:15:05;;;;;;;;;;;-8.30;99.90;;;-9.58;100.00;98795.56;5041862;28;1320;-72
2024/01/21 04:17:32;;;;;;;;;;;-8.30;99.90;;;-9.62;100.00;98793.66;5029155;28;1278;-72
2024/01/21 04:19:59;;;;;;;;;;;-8.20;99.90;;;-9.63;100.00;98797.81;5037656;28;1320;-73
2024/01/21 04:22:26;;;;;;;;;;;-8.20;99.90;;;-9.45;100.00;98804.66;5040075;28;1007;-72
2024/01/21 04:24:53;;;;;;;;;;;-8.30;99.90;;;-9.50;100.00;98820.34;5039943;28;1993;-72
2024/01/21 04:27:19;;;;;;;;;;;-8.20;99.90;;;-9.57;100.00;98814.91;5026738;28;1556;-72
2024/01/21 04:29:47;;;;;;;;;;;-8.20;99.90;;;-9.53;100.00;98821.84;5041216;28;1728;-72
2024/01/21 04:32:14;;;;;;;;;;;-8.10;99.90;;;-9.38;100.00;98826.84;5040003;28;1399;-72
2024/01/21 04:34:41;;;;;;;;;;;-8.00;99.90;;;-9.15;100.00;98823.09;5040201;28;1350;-72
2024/01/21 04:37:08;;;;;;;;;;;-7.80;99.90;;;-8.90;100.00;98816.06;5040049;28;2078;-72
2024/01/21 04:39:35;;;;;;;;;;;-7.60;99.90;;;-8.85;100.00;98811.28;5040667;28;1621;-72
2024/01/21 04:42:02;;;;;;;;;;;-7.50;99.90;;;-8.68;100.00;98802.13;5020110;28;1334;-72
2024/01/21 04:44:29;;;;;;;;;;;-7.40;99.90;;;-8.56;100.00;98792.69;5039223;28;2009;-72
2024/01/21 04:46:56;;;;;;;;;;;-7.30;99.90;;;-8.57;100.00;98798.53;5041209;28;1039;-72
2024/01/21 04:49:22;;;;;;;;;;;-7.40;99.90;;;-8.59;100.00;98795.06;5039223;28;1438;-71
2024/01/21 04:51:49;;;;;;;;;;;-7.40;99.90;;;-8.70;100.00;98788.59;5027271;28;1348;-72
2024/01/21 04:54:17;;;;;;;;;;;-7.50;99.90;;;-8.67;100.00;98784.56;5036329;28;1897;-72
2024/01/21 04:56:43;;;;;;;;;;;-7.60;99.90;;;-8.86;100.00;98785.25;5038336;28;1517;-72
2024/01/21 04:59:10;;;;;;;;;;;-7.60;99.90;;;-8.78;100.00;98785.69;5040485;28;1312;-72
2024/01/21 05:01:39;;;;;;;;;;;-7.60;99.90;;;-8.82;100.00;98785.41;5021483;28;1825;-72
2024/01/21 05:04:06;;;;;;;;;;;-7.50;99.90;;;-8.79;100.00;98780.56;5042477;28;1549;-72
2024/01/21 05:06:34;;;;;;;;;;;-7.40;99.90;;;-8.79;100.00;98773.88;5043098;28;1485;-73
2024/01/21 05:09:01;;;;;;;;;;;-7.40;99.90;;;-8.85;100.00;98776.06;5034405;28;1426;-71
2024/01/21 05:11:29;;;;;;;;;;;-7.40;99.90;;;-8.88;100.00;98771.75;5036904;28;1901;-72
2024/01/21 05:13:56;;;;;;;;;;;-7.40;99.90;;;-8.87;100.00;98767.56;5029414;28;1473;-73
2024/01/21 05:16:23;;;;;;;;;;;-7.50;99.90;;;-8.94;100.00;98760.47;5041029;28;1356;-73
2024/01/21 05:18:51;;;;;;;;;;;-7.40;99.90;;;-8.88;100.00;98763.34;5044326;28;1734;-72
2024/01/21 05:21:21;;;;;;;;;;;-7.50;99.90;;;-8.84;100.00;98761.06;5024338;28;1339;-72
2024/01/21 05:23:52;;;;;;;;;;;-7.50;99.90;;;-8.78;100.00;98767.19;5020894;28;1445;-72
2024/01/21 05:26:19;;;;;;;;;;;-7.50;99.90;;;-8.93;100.00;98767.25;5036017;28;2032;-71
2024/01/21 05:28:46;;;;;;;;;;;-7.60;99.90;;;-8.88;100.00;98766.69;5041677;28;1207;-72
2024/01/21 05:31:14;;;;;;;;;;;-7.60;99.90;;;-8.76;100.00;98774.03;5038946;28;1699;-72
2024/01/21 05:33:41;;;;;;;;;;;-7.60;99.90;;;-8.78;100.00;98769.69;5026623;28;1306;-72
2024/01/21 05:36:09;;;;;;;;;;;-7.50;99.90;;;-8.63;100.00;98765.47;5039023;28;1088;-72
2024/01/21 05:38:36;;;;;;;;;;;-7.40;99.90;;;-8.54;100.00;98763.44;5041494;28;1402;-73
2024/01/21 05:41:03;;;;;;;;;;;-7.30;99.90;;;-8.56;100.00;98759.97;5017150;28;1517;-72
2024/01/21 05:43:30;;;;;;;;;;;-7.30;99.90;;;-8.46;100.00;98749.59;5023845;28;1613;-73
2024/01/21 05:45:57;;;;;;;;;;;-7.30;99.90;;;-8.34;100.00;98751.84;5036925;28;1922;-73
2024/01/21 05:48:24;;;;;;;;;;;-7.30;99.90;;;-8.31;100.00;98748.59;5038475;28;1175;-72
2024/01/21 05:50:51;;;;;;;;;;;-7.20;99.90;;;-8.16;100.00;98751.91;5027418;28;1387;-72
2024/01/21 05:53:18;;;;;;;;;;;-7.10;99.90;;;-8.05;100.00;98749.88;5026318;28;1287;-73
2024/01/21 05:55:45;;;;;;;;;;;-7.00;99.90;;;-8.04;100.00;98749.09;5040223;28;1387;-72
2024/01/21 05:58:15;;;;;;;;;;;-7.00;99.90;;;-8.00;100.00;98759.41;5045868;28;1034;-72
2024/01/21 06:00:42;;;;;;;;;;;-6.90;99.90;;;-8.06;100.00;98773.34;5028458;28;1395;-73
2024/01/21 06:03:10;;;;;;;;;;;-6.90;99.90;;;-7.98;100.00;98774.63;5045115;28;1301;-72
2024/01/21 06:05:37;;;;;;;;;;;-6.80;99.90;;;-7.81;100.00;98773.78;5028339;28;1973;-72
2024/01/21 06:08:04;;;;;;;;;;;-6.70;99.90;;;-7.78;100.00;98773.94;5028595;28;1410;-73
2024/01/21 06:10:31;;;;;;;;;;;-6.60;99.90;;;-7.78;100.00;98768.00;5029505;28;1378;-73
2024/01/21 06:12:58;;;;;;;;;;;-6.60;99.90;;;-7.78;100.00;98768.00;5045436;28;1414;-72
2024/01/21 06:15:25;;;;;;;;;;;-6.60;99.90;;;-7.71;100.00;98767.50;5042566;28;1339;-71
2024/01/21 06:17:51;;;;;;;;;;;-6.60;99.90;;;-7.53;100.00;98772.56;5030552;28;1922;-72
2024/01/21 06:20:19;;;;;;;;;;;-6.50;99.90;;;-7.33;100.00;98773.53;5043770;28;1546;-72
2024/01/21 06:22:46;;;;;;;;;;;-6.30;99.90;;;-7.03;100.00;98775.75;5040596;28;1292;-72
2024/01/21 06:25:12;;;;;;;;;;;-6.10;99.90;;;-6.85;100.00;98780.75;5038618;28;1981;-73
2024/01/21 06:27:40;;;;;;;;;;;;;;;-6.61;100.00;98779.34;5040894;28;1192;-73
2024/01/21 06:30:11;;;;;;;;;;;-5.60;99.90;;;-6.47;100.00;98772.38;5043340;28;1582;-72
2024/01/21 06:32:38;;;;;;;;;;;-5.40;99.90;;;-6.34;100.00;98774.63;5027283;28;1345;-73
2024/01/21 06:35:10;;;;;;;;;;;-5.30;99.90;;;-6.12;100.00;98775.53;5042910;28;1429;-73
2024/01/21 06:37:38;;;;;;;;;;;-5.10;99.90;;;-5.78;100.00;98767.66;5043227;28;1351;-72
2024/01/21 06:40:05;;;;;;;;;;;;;;;-5.49;100.00;98760.41;5029222;28;1417;-73
2024/01/21 06:42:33;;;;;;;;;;;-4.50;99.90;;;-4.61;100.00;98749.38;5038194;28;1345;-72
2024/01/21 06:44:59;;;;;;;;;;;-3.90;99.90;;;-4.65;100.00;98771.22;5045105;28;1890;-72
2024/01/21 06:47:26;;;;;;;;;;;-3.60;99.90;;;-4.50;100.00;98760.75;5041720;28;1290;-73
2024/01/21 06:49:53;;;;;;;;;;;-3.40;99.90;;;-4.62;100.00;98768.78;5027361;28;1364;-72
2024/01/21 06:52:20;;;;;;;;;;;-3.40;99.90;;;-4.67;100.00;98756.75;5024467;28;1335;-72
2024/01/21 06:54:47;;;;;;;;;;;-3.40;99.90;;;-4.46;100.00;98760.06;5042767;28;1518;-73
2024/01/21 06:57:14;;;;;;;;;;;-3.30;99.90;;;-4.44;100.00;98760.13;5023550;28;1492;-72
2024/01/21 06:59:40;;;;;;;;;;;-3.20;99.90;;;-4.38;100.00;98754.41;5041780;28;1116;-73
2024/01/21 07:02:07;;;;;;;;;;;-3.10;99.90;;;-4.25;100.00;98756.56;5030254;28;1282;-73
2024/01/21 07:04:34;;;;;;;;;;;-3.10;99.90;;;-4.31;100.00;98759.75;5021155;28;1291;-73
2024/01/21 07:07:02;;;;;;;;;;;-3.10;99.90;;;-4.30;100.00;98751.31;5028861;28;1985;-73
2024/01/21 07:09:29;;;;;;;;;;;-3.10;99.90;;;-4.13;100.00;98749.34;5029111;28;994;-72
2024/01/21 07:11:56;;;;;;;;;;;-3.00;99.90;;;-4.01;100.00;98757.41;5042148;28;1049;-73
2024/01/21 07:14:23;;;;;;;;;;;-3.00;99.90;;;-4.11;100.00;98762.09;5023970;28;1335;-72
2024/01/21 07:16:50;;;;;;;;;;;-3.00;99.90;;;-4.22;100.00;98751.56;5044112;28;1375;-72
2024/01/21 07:19:17;;;;;;;;;;;;;;;-4.04;100.00;98752.25;5041922;28;1624;-73
2024/01/21 07:21:44;;;;;;;;;;;-2.90;99.90;;;-4.18;100.00;98757.63;5043378;28;1115;-71
2024/01/21 07:24:11;;;;;;;;;;;-2.90;99.90;;;-4.11;100.00;98762.09;5043565;28;1256;-73
2024/01/21 07:26:38;;;;;;;;;;;-2.90;99.90;;;-4.21;100.00;98753.31;5040309;28;1997;-73
2024/01/21 07:29:05;;;;;;;;;;;-2.80;99.90;;;-4.07;100.00;98761.41;5028706;28;1064;-73
2024/01/21 07:31:32;;;;;;;;;;;-2.90;99.90;;;-4.09;100.00;98758.81;5043712;28;1500;-72
2024/01/21 07:33:59;;;;;;;;;;;-2.80;99.90;;;-4.12;100.00;98760.38;5043249;28;1292;-72
2024/01/21 07:36:26;;;;;;;;;;;-2.80;99.90;;;-4.07;100.00;98774.09;5041368;28;1170;-73
2024/01/21 07:38:54;;;;;;;;;;;-2.80;99.90;;;-4.12;100.00;98773.06;5042027;28;1009;-73
2024/01/21 07:41:20;;;;;;;;;;;-2.80;99.90;;;-4.06;100.00;98770.72;5037336;28;1142;-71
2024/01/21 07:43:47;;;;;;;;;;;-2.80;99.90;;;-3.99;100.00;98760.00;5039959;28;1367;-73
2024/01/21 07:46:14;;;;;;;;;;;-2.70;99.90;;;-3.88;100.00;98771.34;5027579;28;1971;-73
2024/01/21 07:48:41;;;;;;;;;;;-2.70;99.90;;;-3.79;100.00;98758.09;5031060;28;1037;-73
2024/01/21 07:51:08;;;;;;;;;;;-2.70;99.90;;;-3.84;100.00;98759.63;5039326;28;1059;-72
2024/01/21 07:53:36;;;;;;;;;;;-2.60;99.90;;;-3.55;100.00;98764.81;5025976;28;1487;-73
2024/01/21 07:56:03;;;;;;;;;;;-2.60;99.90;;;-3.58;100.00;98763.03;5041283;28;1026;-72
2024/01/21 07:58:30;;;;;;;;;;;-2.50;99.90;;;-3.70;100.00;98775.31;5042957;28;1374;-73
2024/01/21 08:00:57;;;;;;;;;;;-2.50;99.90;;;-3.64;100.00;98760.31;5041429;28;1116;-73
2024/01/21 08:03:24;;;;;;;;;;;-2.40;99.90;;;-3.64;100.00;98758.63;5043208;28;1078;-73
2024/01/21 08:05:53;;;;;;;;;;;-2.50;99.90;;;-3.51;100.00;98766.63;5039758;28;1907;-73
2024/01/21 08:08:20;;;;;;;;;;;-2.50;99.90;;;-3.46;100.00;98793.91;5026714;28;1155;-72
2024/01/21 08:10:46;;;;;;;;;;;-2.50;99.90;;;-3.64;100.00;98784.00;5038019;28;1622;-73
2024/01/21 08:13:13;;;;;;;;;;;-2.40;99.90;;;-3.70;100.00;98795.63;5021539;28;1076;-73
2024/01/21 08:15:40;;;;;;;;;;;-2.50;99.90;;;-3.69;100.00;98777.06;5044573;28;1296;-72
2024/01/21 08:18:07;;;;;;;;;;;-2.50;99.90;;;-3.49;100.00;98775.16;5041211;28;1635;-72
2024/01/21 08:20:34;;;;;;;;;;;-2.50;99.90;;;-3.73;100.00;98775.22;5038457;28;1371;-72
2024/01/21 08:23:01;;;;;;;;;;;-2.50;99.90;;;-3.57;100.00;98752.94;5029362;28;1254;-72
2024/01/21 08:25:28;;;;;;;;;;;-2.40;99.90;;;-3.70;100.00;98734.72;5033798;28;1922;-72
2024/01/21 08:27:55;;;;;;;;;;;-2.40;99.90;;;-3.68;100.00;98740.72;5019976;28;1844;-72
2024/01/21 08:30:22;;;;;;;;;;;-2.40;99.90;;;-3.55;100.00;98762.28;5029914;28;1406;-72
2024/01/21 08:32:49;;;;;;;;;;;-2.40;99.90;;;-3.59;100.00;98743.53;5018005;28;1480;-72
2024/01/21 08:35:17;;;;;;;;;;;-2.30;99.90;;;-3.50;100.00;98771.75;5031451;28;1491;-71
2024/01/21 08:37:44;;;;;;;;;;;-2.30;99.90;;;-3.24;100.00;98775.13;5038321;28;1186;-73
2024/01/21 08:40:11;;;;;;;;;;;-2.30;99.90;;;-3.24;100.00;98795.44;5025184;28;1294;-72
2024/01/21 08:42:39;;;;;;;;;;;-2.20;99.90;;;-3.04;100.00;98798.59;5037833;28;1194;-72
2024/01/21 08:45:07;;;;;;;;;;;-2.10;99.90;;;-3.15;100.00;98797.41;5027055;28;1289;-73
2024/01/21 08:47:34;;;;;;;;;;;-2.10;99.90;;;-3.01;100.00;98796.16;5024379;28;1309;-72
2024/01/21 08:50:02;;;;;;;;;;;-2.00;99.90;;;-3.08;100.00;98778.13;5038806;28;1262;-72
2024/01/21 08:52:29;;;;;;;;;;;-1.90;99.90;;;-3.08;100.00;98812.03;5037127;28;1403;-72
2024/01/21 08:54:56;;;;;;;;;;;-1.90;99.90;;;-2.92;100.00;98802.31;5037378;28;1667;-73
2024/01/21 08:57:23;;;;;;;;;;;-1.80;99.90;;;-2.89;100.00;98804.97;5039787;28;1149;-72
2024/01/21 08:59:51;;;;;;;;;;;-1.80;99.90;;;-2.91;100.00;98812.53;5045100;28;1218;-72
2024/01/21 09:02:18;;;;;;;;;;;-1.70;99.90;;;-2.82;100.00;98814.50;5041441;28;1294;-73
2024/01/21 09:04:45;;;;;;;;;;;-1.70;99.90;;;-2.71;100.00;98812.25;5036372;28;1382;-73
2024/01/21 09:07:12;;;;;;;;;;;-1.60;99.90;;;-2.66;100.00;98805.66;5038593;28;2026;-72
2024/01/21 09:09:39;;;;;;;;;;;-1.60;99.90;;;-2.66;100.00;98780.25;5040922;28;1039;-71
2024/01/21 09:12:07;;;;;;;;;;;-1.50;99.90;;;-2.54;100.00;98768.72;5041425;28;1143;-72
2024/01/21 09:14:36;;;;;;;;;;;-1.40;99.90;;;-2.60;100.00;98758.41;5039398;28;1299;-72
2024/01/21 09:17:03;;;;;;;;;;;-1.30;99.90;;;-2.63;100.00;98745.59;5039587;28;1090;-72
2024/01/21 09:19:30;;;;;;;;;;;-1.30;99.90;;;-2.50;100.00;98741.72;5037970;28;1097;-72
2024/01/21 09:21:57;;;;;;;;;;;-1.30;99.90;;;-2.37;100.00;98770.91;5037159;28;1225;-72
2024/01/21 09:24:24;;;;;;;;;;;;;;;-2.25;100.00;98780.56;5042600;28;1280;-72
2024/01/21 09:26:51;;;;;;;;;;;-1.20;99.90;;;-2.22;100.00;98790.81;5027342;28;1895;-73
2024/01/21 09:29:18;;;;;;;;;;;-1.20;99.90;;;-1.98;100.00;98795.72;5026476;28;1443;-73
2024/01/21 09:31:53;;;;;;;;;;;-1.10;99.90;;;-2.07;100.00;98805.63;5026164;28;1255;-72
2024/01/21 09:34:21;;;;;;;;;;;-1.00;99.90;;;-1.95;100.00;98832.25;5046853;28;1318;-73
2024/01/21 09:36:48;;;;;;;;;;;-0.90;99.90;;;-1.64;100.00;98863.63;5028788;28;1355;-72
2024/01/21 09:39:15;;;;;;;;;;;-0.80;99.90;;;-1.57;100.00;98878.25;5042617;28;1261;-73
2024/01/21 09:41:49;;;;;;;;;;;;;;;-1.70;100.00;98886.38;5041034;28;1104;-72
2024/01/21 09:44:23;;;;;;;;;;;-0.70;99.90;;;-1.52;100.00;98903.84;5034031;28;1295;-73
2024/01/21 09:46:52;;;;;;;;;;;-0.50;99.90;;;-1.34;100.00;98913.66;5030534;28;1991;-70
2024/01/21 09:49:20;;;;;;;;;;;-0.50;99.90;;;-1.29;100.00;98928.22;5042624;28;1260;-72
2024/01/21 09:51:49;;;;;;;;;;;-0.40;99.90;;;-1.47;100.00;98932.81;5043579;28;1058;-73
2024/01/21 09:54:16;;;;;;;;;;;-0.20;99.90;;;-1.43;100.00;98924.44;5030950;28;1382;-73
2024/01/21 09:56:43;;;;;;;;;;;-0.20;99.90;;;-1.50;100.00;98914.94;5027323;28;1060;-72
2024/01/21 09:59:11;;;;;;;;;;;-0.20;99.90;;;-1.32;100.00;98912.00;5043383;28;1582;-74
2024/01/21 10:01:40;;;;;;;;;;;-0.30;99.90;;;-1.34;100.00;98904.31;5041224;28;1646;-70
2024/01/21 10:04:11;;;;;;;;;;;-0.20;99.90;;;-1.09;100.00;98912.59;5030284;28;1308;-73
2024/01/21 10:06:38;;;;;;;;;;;-0.20;99.90;;;-1.14;100.00;98909.94;5031649;28;1975;-72
2024/01/21 10:09:21;;;;;;;;;;;-0.10;99.90;;;-1.15;100.00;98915.84;5045804;28;1281;-74
2024/01/21 10:11:50;;;;;;;;;;;-0.20;99.90;;;-1.33;100.00;98920.47;5042971;28;1191;-73
2024/01/21 10:14:17;;;;;;;;;;;-0.10;99.90;;;-1.25;100.00;98903.69;5040230;28;1295;-73
2024/01/21 10:16:44;;;;;;;;;;;-0.10;99.90;;;-1.38;100.00;98897.41;5024763;28;1073;-72
2024/01/21 10:19:13;;;;;;;;;;;-0.10;99.90;;;-1.39;100.00;98882.09;5026438;28;1065;-73
2024/01/21 10:21:40;;;;;;;;;;;-0.10;99.90;;;-1.45;100.00;98889.59;5041703;28;1260;-73
2024/01/21 10:24:11;;;;;;;;;;;-0.10;99.90;;;-1.36;100.00;98912.75;5043812;28;1284;-73
2024/01/21 10:26:41;;;;;;;;;;;-0.10;99.90;;;-1.17;100.00;98903.88;5027216;28;1898;-72
2024/01/21 10:29:08;;;;;;;;;;;-0.10;99.90;;;-0.91;100.00;98882.47;5032999;28;1113;-73
2024/01/21 10:31:35;;;;;;;;;;;0.10;99.90;;;-0.87;100.00;98899.56;5043893;28;2043;-73
2024/01/21 10:34:02;;;;;;;;;;;0.30;99.90;;;-0.83;100.00;98907.28;5032039;28;1260;-73
2024/01/21 10:36:32;;;;;;;;;;;0.30;99.90;;;-0.60;100.00;98916.31;5044210;28;1095;-73
2024/01/21 10:39:03;;;;;;;;;;;0.20;99.90;;;-0.99;100.00;98896.69;5041827;28;1404;-73
2024/01/21 10:41:31;;;;;;;;;;;0.30;99.90;;;-1.01;100.00;98889.84;5030556;28;1323;-73
2024/01/21 10:44:00;;;;;;;;;;;0.20;99.90;;;-0.86;100.00;98888.53;5040360;28;1257;-72
2024/01/21 10:46:27;;;;;;;;;;;0.20;99.90;;;-0.80;100.00;98876.75;5023964;28;2000;-72
2024/01/21 10:48:58;;;;;;;;;;;0.30;99.90;;;-0.38;100.00;98866.66;5046931;28;1343;-72
2024/01/21 10:51:26;;;;;;;;;;;0.40;99.90;;;-0.20;100.00;98855.13;5030428;28;1155;-72
2024/01/21 10:53:53;;;;;;;;;;;0.50;99.90;;;-0.21;100.00;98849.13;5044814;28;1309;-71
2024/01/21 10:56:20;;;;;;;;;;;0.70;99.90;;;-0.13;100.00;98850.16;5043952;28;1277;-73
2024/01/21 10:58:49;;;;;;;;;;;0.80;99.90;;;-0.05;100.00;98856.28;5042434;28;1603;-72
2024/01/21 11:01:16;;;;;;;;;;;0.80;99.90;;;-0.18;100.00;98838.13;5044467;28;1211;-72
2024/01/21 11:03:44;;;;;;;;;;;0.90;99.90;;;-0.12;100.00;98826.34;5041164;28;1299;-72
2024/01/21 11:06:11;;;;;;;;;;;0.90;99.90;;;0.11;100.00;98826.81;5012878;28;1902;-72
2024/01/21 11:08:45;;;;;;;;;;;0.90;99.90;;;0.05;100.00;98816.50;5025202;28;1497;-72
2024/01/21 11:11:12;;;;;;;;;;;1.00;99.90;;;0.13;100.00;98803.88;5041585;28;1264;-72
2024/01/21 11:13:45;;;;;;;;;;;1.10;99.90;;;0.31;100.00;98777.81;5039534;28;1424;-72
2024/01/21 11:16:31;;;;;;;;;;;1.20;99.90;;;0.47;100.00;98807.88;5045606;28;1326;-72
2024/01/21 11:18:58;;;;;;;;;;;1.20;99.90;;;0.60;100.00;98821.75;5043690;28;1329;-70
2024/01/21 11:21:27;;;;;;;;;;;1.30;99.90;;;0.48;100.00;98796.84;5027534;28;1711;-70